Time;durP1;ratioP1;P1;durP2;ratioP2;P2;SDS_P1;SDS_P2;PMS_P1;PMS_P2;Temp;Humidity;BMP_temperature;BMP_pressure;BME280_temperature;BME280_humidity;BME280_pressure;Samples;Min_cycle;Max_cycle;Signal;HPM_P1;HPM_P2
2023/10/09 00:01:17;;;;;;;50.47;26.95;;;;;;;14.20;100.00;101997.53;5064053;28;20500;-65
2023/10/09 00:03:52;;;;;;;45.28;26.05;;;;;;;14.22;100.00;101998.19;5065058;28;20036;-65
2023/10/09 00:06:23;;;;;;;45.20;25.70;;;;;;;14.19;100.00;101993.19;5065293;28;20036;-64
2023/10/09 00:08:54;;;;;;;47.00;26.27;;;;;;;14.22;100.00;101995.53;5060404;28;20080;-65
2023/10/09 00:11:20;;;;;;;41.67;24.55;;;;;;;14.14;100.00;101993.66;5063361;28;20031;-64
2023/10/09 00:13:51;;;;;;;40.55;23.85;;;;;;;14.09;100.00;101996.00;5065064;28;20111;-64
2023/10/09 00:16:32;;;;;;;38.33;24.52;;;;;;;14.08;100.00;101982.81;5070070;28;20132;-64
2023/10/09 00:19:12;;;;;;;43.03;25.73;;;;;;;14.10;100.00;101978.97;5058037;28;20505;-64
2023/10/09 00:21:38;;;;;;;39.50;25.33;;;;;;;14.13;100.00;101972.44;5061866;28;20103;-65
2023/10/09 00:24:05;;;;;;;40.17;25.55;;;;;;;14.21;100.00;101975.16;5064508;28;20547;-64
2023/10/09 00:26:42;;;;;;;43.28;25.55;;;;;;;14.25;100.00;101971.97;5060113;28;20036;-64
2023/10/09 00:29:08;;;;;;;36.70;24.48;;;;;;;14.29;100.00;101964.47;5054084;28;20074;-64
2023/10/09 00:31:33;;;;;;;41.33;25.20;;;;;;;14.36;100.00;101968.13;5064559;28;20033;-64
2023/10/09 00:34:05;;;;;;;39.83;26.00;;;;;;;14.36;100.00;101970.78;5068976;28;20090;-65
2023/10/09 00:36:32;;;;;;;39.55;24.33;;;;;;;14.35;100.00;101965.63;5064876;28;20117;-65
2023/10/09 00:39:00;;;;;;;37.17;23.27;;;;;;;14.37;100.00;101961.78;5066318;28;20038;-65
2023/10/09 00:41:26;;;;;;;34.13;23.23;;;;;;;14.37;100.00;101961.78;5065278;28;20024;-65
2023/10/09 00:43:52;;;;;;;40.17;23.80;;;;;;;14.38;100.00;101971.47;5064274;28;20148;-65
2023/10/09 00:48:47;;;;;;;37.65;23.23;;;;;;;14.39;100.00;101974.97;5055933;28;20041;-65
2023/10/09 00:51:17;;;;;;;36.25;22.63;;;;;;;14.40;100.00;101972.13;5059514;28;20047;-64
2023/10/09 00:53:50;;;;;;;35.95;23.45;;;;;;;14.43;100.00;101970.97;5059717;28;20156;-64
2023/10/09 00:58:56;;;;;;;37.17;23.92;;;;;;;14.43;100.00;101966.47;5050840;28;20075;-65
2023/10/09 01:01:27;;;;;;;35.03;22.50;;;;;;;14.42;100.00;101963.94;5059708;28;20056;-64
2023/10/09 01:03:53;;;;;;;35.45;22.70;;;;;;;14.43;100.00;101966.47;5060957;28;20024;-64
2023/10/09 01:06:21;;;;;;;36.33;23.35;;;;;;;14.46;100.00;101968.00;5066400;28;20428;-64
2023/10/09 01:11:30;;;;;;;33.80;22.20;;;;;;;14.44;100.00;101964.63;5062011;28;20094;-65
2023/10/09 01:14:11;;;;;;;33.38;22.83;;;;;;;14.47;100.00;101965.16;5065309;28;20020;-65
2023/10/09 01:16:36;;;;;;;34.38;22.08;;;;;;;14.45;100.00;101950.25;5060002;28;20770;-65
2023/10/09 01:19:12;;;;;;;33.47;21.70;;;;;;;14.42;100.00;101948.75;5052554;28;20104;-65
2023/10/09 01:21:39;;;;;;;39.22;22.58;;;;;;;14.53;100.00;101960.97;5065275;28;20025;-64
2023/10/09 01:24:08;;;;;;;32.92;21.67;;;;;;;14.55;100.00;101965.13;5061837;28;20036;-65
2023/10/09 01:26:47;;;;;;;29.13;19.92;;;;;;;14.55;100.00;101965.13;5067871;28;20036;-65
2023/10/09 01:29:20;;;;;;;33.70;20.52;;;;;;;14.55;100.00;101967.81;5061973;28;20043;-64
2023/10/09 01:32:04;;;;;;;32.33;20.65;;;;;;;14.54;100.00;101968.00;5051365;28;20096;-64
2023/10/09 01:34:48;;;;;;;30.92;20.60;;;;;;;14.53;100.00;101969.81;5056024;28;20339;-64
2023/10/09 01:37:19;;;;;;;33.33;20.35;;;;;;;14.54;100.00;101963.47;5051056;28;20027;-64
2023/10/09 01:39:49;;;;;;;29.60;19.67;;;;;;;14.56;100.00;101960.63;5068923;28;20024;-65
2023/10/09 01:45:09;;;;;;;29.02;20.10;;;;;;;14.61;100.00;101952.94;5064291;28;20096;-64
2023/10/09 01:47:37;;;;;;;34.38;20.85;;;;;;;14.65;100.00;101950.75;5062843;28;20085;-64
2023/10/09 01:50:05;;;;;;;31.30;20.77;;;;;;;14.67;100.00;101959.44;5064541;28;20086;-64
2023/10/09 01:52:30;;;;;;;29.15;18.77;;;;;;;14.70;100.00;101953.75;5060574;28;20051;-64
2023/10/09 01:55:01;;;;;;;27.50;19.33;;;;;;;14.70;100.00;101951.91;5057485;28;20028;-64
2023/10/09 01:57:29;;;;;;;27.92;19.10;;;;;;;14.72;100.00;101943.72;5060694;28;20025;-64
2023/10/09 01:59:56;;;;;;;26.50;18.17;;;;;;;14.73;100.00;101946.22;5060948;28;20028;-64
2023/10/09 02:04:51;;;;;;;29.98;19.45;;;;;;;14.75;100.00;101959.44;5058815;28;20040;-64
2023/10/09 02:07:22;;;;;;;29.73;18.63;;;;;;;14.75;100.00;101959.44;5057553;28;20036;-65
2023/10/09 02:09:47;;;;;;;29.23;18.63;;;;;;;14.73;100.00;101958.75;5062081;28;20047;-64
2023/10/09 02:12:13;;;;;;;33.17;19.08;;;;;;;14.69;100.00;101952.91;5062542;28;20021;-64
2023/10/09 02:14:41;;;;;;;32.67;19.00;;;;;;;14.69;100.00;101944.06;5060869;28;20107;-64
2023/10/09 02:17:17;;;;;;;30.52;18.30;;;;;;;14.66;100.00;101933.69;5056914;28;20028;-64
2023/10/09 02:19:48;;;;;;;32.85;19.15;;;;;;;14.69;100.00;101939.53;5063825;28;20135;-64
2023/10/09 02:22:13;;;;;;;26.60;18.05;;;;;;;14.72;100.00;101946.38;5058333;28;20425;-64
2023/10/09 02:24:49;;;;;;;29.95;18.33;;;;;;;14.74;100.00;101941.69;5059294;28;20028;-65
2023/10/09 02:28:05;;;;;;;31.95;18.75;;;;;;;14.74;100.00;101931.84;5054377;28;20028;-64
2023/10/09 02:30:15;;;;;;;30.55;18.23;;;;;;;14.74;100.00;101925.66;5045787;28;20036;-64
2023/10/09 02:32:42;;;;;;;28.33;17.98;;;;;;;14.75;100.00;101916.66;5059304;28;21101;-65
2023/10/09 02:35:18;;;;;;;28.50;18.67;;;;;;;14.75;100.00;101922.00;5063116;28;20020;-64
2023/10/09 02:37:45;;;;;;;26.95;17.95;;;;;;;14.76;100.00;101912.97;5058561;28;20089;-64
2023/10/09 02:40:15;;;;;;;27.27;18.50;;;;;;;14.79;100.00;101901.94;5060700;28;20086;-65
2023/10/09 02:42:43;;;;;;;26.98;18.40;;;;;;;14.80;100.00;101904.44;5060192;28;20074;-64
2023/10/09 02:45:10;;;;;;;26.98;17.77;;;;;;;14.80;100.00;101904.44;5057646;28;20032;-64
2023/10/09 02:47:38;;;;;;;27.52;17.95;;;;;;;14.80;100.00;101920.47;5064135;28;20482;-64
2023/10/09 02:50:19;;;;;;;31.83;17.98;;;;;;;14.77;100.00;101917.31;5059562;28;20068;-64
2023/10/09 02:52:46;;;;;;;29.35;18.60;;;;;;;14.75;100.00;101917.50;5060845;28;21580;-64
2023/10/09 02:55:23;;;;;;;29.27;19.13;;;;;;;14.73;100.00;101915.97;5052985;28;20020;-64
2023/10/09 02:57:51;;;;;;;28.50;18.67;;;;;;;14.69;100.00;101914.63;5066071;28;20021;-64
2023/10/09 03:00:28;;;;;;;33.15;19.60;;;;;;;14.67;100.00;101914.81;5058688;28;20035;-64
2023/10/09 03:02:54;;;;;;;28.75;18.95;;;;;;;14.66;100.00;101906.97;5060465;28;20029;-65
2023/10/09 03:05:20;;;;;;;32.88;19.98;;;;;;;14.63;100.00;101901.97;5060802;28;20025;-64
2023/10/09 03:07:46;;;;;;;30.83;19.52;;;;;;;14.64;100.00;101901.78;5060159;28;20032;-64
2023/10/09 03:10:11;;;;;;;32.03;20.10;;;;;;;14.63;100.00;101907.31;5062951;28;20043;-64
2023/10/09 03:12:39;;;;;;;30.90;20.00;;;;;;;14.62;100.00;101898.47;5061533;28;20028;-64
2023/10/09 03:15:08;;;;;;;30.80;20.05;;;;;;;14.59;100.00;101889.94;5068258;28;20107;-65
2023/10/09 03:17:34;;;;;;;29.75;20.55;;;;;;;14.60;100.00;101886.28;5066359;28;20028;-65
2023/10/09 03:20:02;;;;;;;30.70;19.80;;;;;;;14.62;100.00;101885.09;5066941;28;20012;-65
2023/10/09 03:22:27;;;;;;;32.05;20.10;;;;;;;14.61;100.00;101888.78;5070799;28;20089;-65
2023/10/09 03:24:52;;;;;;;33.30;20.52;;;;;;;14.61;100.00;101893.28;5066163;28;20028;-64
2023/10/09 03:27:18;;;;;;;30.20;19.92;;;;;;;14.62;100.00;101886.94;5070631;28;20026;-64
2023/10/09 03:29:49;;;;;;;35.13;21.27;;;;;;;14.62;100.00;101881.59;5063652;28;20021;-64
2023/10/09 03:32:14;;;;;;;29.95;20.58;;;;;;;14.60;100.00;101873.72;5065131;28;20056;-64
2023/10/09 03:34:40;;;;;;;31.95;21.05;;;;;;;14.61;100.00;101870.06;5064766;28;20108;-64
2023/10/09 03:37:06;;;;;;;31.75;20.85;;;;;;;14.61;100.00;101866.53;5062746;28;20029;-65
2023/10/09 03:39:41;;;;;;;29.83;20.15;;;;;;;14.61;100.00;101863.88;5066715;28;20024;-64
2023/10/09 03:42:11;;;;;;;30.58;20.42;;;;;;;14.59;100.00;101868.56;5067961;28;20031;-64
2023/10/09 03:44:41;;;;;;;30.38;20.88;;;;;;;14.58;100.00;101875.75;5057607;28;20043;-64
2023/10/09 03:47:09;;;;;;;29.23;19.83;;;;;;;14.55;100.00;101873.41;5065206;28;20031;-64
2023/10/09 03:49:38;;;;;;;33.97;20.23;;;;;;;14.54;100.00;101887.78;5064608;28;20020;-64
2023/10/09 03:52:04;;;;;;;32.03;20.30;;;;;;;14.48;100.00;101875.94;5066589;28;20286;-64
2023/10/09 03:54:32;;;;;;;28.92;20.58;;;;;;;14.49;100.00;101885.63;5063317;28;20055;-65
2023/10/09 03:56:58;;;;;;;30.70;20.98;;;;;;;14.49;100.00;101880.28;5070250;28;20545;-65
2023/10/09 03:59:30;;;;;;;31.17;20.77;;;;;;;14.49;100.00;101882.97;5066432;28;20044;-64
2023/10/09 04:01:57;;;;;;;32.80;21.80;;;;;;;14.49;100.00;101874.94;5064545;28;20059;-65
2023/10/09 04:04:23;;;;;;;33.88;20.92;;;;;;;14.49;100.00;101868.75;5061183;28;20055;-64
2023/10/09 04:06:49;;;;;;;31.02;21.27;;;;;;;14.48;100.00;101857.25;5067281;28;20048;-65
2023/10/09 04:12:04;;;;;;;33.58;21.52;;;;;;;14.48;100.00;101846.56;5062166;28;20033;-64
2023/10/09 04:14:34;;;;;;;32.63;21.67;;;;;;;14.53;100.00;101846.03;5061795;28;20024;-65
2023/10/09 04:17:32;;;;;;;35.58;21.73;;;;;;;14.55;100.00;101847.53;5063329;28;20028;-64
2023/10/09 04:22:39;;;;;;;35.03;21.50;;;;;;;14.57;100.00;101866.91;5055580;28;20059;-64
2023/10/09 04:25:14;;;;;;;31.60;20.92;;;;;;;14.56;100.00;101859.88;5068476;28;20020;-64
2023/10/09 04:27:40;;;;;;;32.80;21.52;;;;;;;14.52;100.00;101881.78;5063728;28;20032;-64
2023/10/09 04:30:07;;;;;;;36.45;21.35;;;;;;;14.48;100.00;101893.81;5064206;28;20039;-65
2023/10/09 04:32:34;;;;;;;31.80;21.27;;;;;;;14.49;100.00;101895.50;5065578;28;20056;-64
2023/10/09 04:37:48;;;;;;;35.38;21.88;;;;;;;14.44;100.00;101895.16;5054586;28;20040;-64
2023/10/09 04:40:40;;;;;;;35.72;21.60;;;;;;;14.42;100.00;101895.28;5059047;28;20052;-64
2023/10/09 04:42:58;;;;;;;36.70;22.08;;;;;;;14.41;100.00;101898.97;5055435;28;20115;-64
2023/10/09 04:48:09;;;;;;;35.55;22.25;;;;;;;14.43;100.00;101910.34;5064738;28;20035;-65
2023/10/09 04:55:57;;;;;;;31.25;21.33;;;;;;;14.43;100.00;101904.16;5068213;28;20489;-65
2023/10/09 04:58:25;;;;;;;39.10;22.15;;;;;;;14.40;100.00;101897.28;5067065;28;20032;-64
2023/10/09 05:03:27;;;;;;;32.88;21.77;;;;;;;14.41;100.00;101900.78;5061680;28;20444;-64
2023/10/09 05:05:59;;;;;;;33.33;21.02;;;;;;;14.39;100.00;101892.94;5063952;28;20024;-65
2023/10/09 05:08:28;;;;;;;33.30;21.75;;;;;;;14.41;100.00;101898.97;5056146;28;20040;-64
2023/10/09 05:16:18;;;;;;;35.58;22.33;;;;;;;14.43;100.00;101888.97;5064167;28;20028;-64
2023/10/09 05:18:56;;;;;;;33.63;21.90;;;;;;;14.46;100.00;101904.69;5064997;28;20590;-64
2023/10/09 05:29:19;;;;;;;30.85;21.48;;;;;;;14.40;100.00;101917.84;5059364;28;20660;-65
2023/10/09 05:32:15;;;;;;;36.78;22.33;;;;;;;14.38;100.00;101919.84;5062904;28;20024;-65
2023/10/09 05:37:32;;;;;;;34.13;22.15;;;;;;;14.37;100.00;101924.34;5060896;28;20029;-65
2023/10/09 05:42:42;;;;;;;35.80;22.73;;;;;;;14.39;100.00;101908.16;5057575;28;20379;-64
2023/10/09 06:03:23;;;;;;;37.38;23.05;;;;;;;14.52;100.00;101948.63;5061921;28;20125;-65
2023/10/09 06:06:01;;;;;;;39.65;24.33;;;;;;;14.50;100.00;101945.28;5063206;28;20115;-65
2023/10/09 06:14:04;;;;;;;35.30;23.13;;;;;;;14.52;100.00;101937.91;5057622;28;20090;-65
2023/10/09 06:24:17;;;;;;;40.10;23.13;;;;;;;14.61;100.00;101942.25;5064898;28;20056;-65
2023/10/09 06:29:38;;;;;;;37.75;22.65;;;;;;;14.70;100.00;101937.69;5056823;28;20551;-65
2023/10/09 06:35:15;;;;;;;40.78;23.27;;;;;;;14.73;100.00;101946.22;5056742;28;20039;-64
2023/10/09 06:38:21;;;;;;;39.42;23.25;;;;;;;14.75;100.00;101930.03;5055235;28;20108;-64
2023/10/09 06:51:15;;;;;;;38.33;24.00;;;;;;;14.85;100.00;101923.47;5064529;28;20036;-65
2023/10/09 06:59:04;;;;;;;38.13;23.02;;;;;;;14.84;100.00;101921.78;5062716;28;20068;-64
2023/10/09 07:01:42;;;;;;;37.35;23.95;;;;;;;14.85;100.00;101909.25;5064045;28;20142;-64
2023/10/09 07:04:45;;;;;;;40.63;24.05;;;;;;;14.85;100.00;101911.94;5063103;28;20456;-64
2023/10/09 07:07:20;;;;;;;39.27;24.20;;;;;;;14.86;100.00;101886.84;5052650;28;20040;-64
2023/10/09 07:10:28;;;;;;;35.22;23.55;;;;;;;14.87;100.00;101859.94;5051822;28;20614;-65
2023/10/09 07:12:42;;;;;;;40.45;23.67;;;;;;;14.87;100.00;101870.63;5062355;28;20123;-65
2023/10/09 07:20:13;;;;;;;42.85;25.13;;;;;;;14.93;100.00;101922.59;5058973;28;20036;-65
2023/10/09 07:22:39;;;;;;;39.30;23.88;;;;;;;14.94;100.00;101948.34;5064001;28;20031;-65
2023/10/09 07:25:14;;;;;;;36.88;24.38;;;;;;;14.96;100.00;101953.50;5066569;28;20020;-65
2023/10/09 07:27:43;;;;;;;43.38;24.83;;;;;;;14.93;100.00;101954.69;5068481;28;20035;-64
2023/10/09 07:32:52;;;;;;;39.40;25.42;;;;;;;14.95;100.00;101965.22;5065750;28;20048;-64
2023/10/09 07:35:46;;;;;;;39.33;25.33;;;;;;;14.96;100.00;101972.22;5057595;28;20021;-65
2023/10/09 07:38:03;;;;;;;38.67;24.48;;;;;;;14.95;100.00;101975.91;5065802;28;20028;-65
2023/10/09 07:40:31;;;;;;;37.50;23.98;;;;;;;14.94;100.00;101968.91;5061151;28;20032;-65
2023/10/09 07:43:04;;;;;;;39.92;25.23;;;;;;;14.94;100.00;101968.91;5061307;28;20028;-64
2023/10/09 07:48:05;;;;;;;42.40;25.85;;;;;;;14.94;100.00;101955.53;5063456;28;20420;-65
2023/10/09 07:50:40;;;;;;;39.67;25.42;;;;;;;14.94;100.00;101963.56;5065245;28;20762;-64
2023/10/09 07:53:25;;;;;;;37.72;25.38;;;;;;;14.96;100.00;101953.50;5067509;28;20028;-65
2023/10/09 07:55:54;;;;;;;37.63;25.50;;;;;;;14.97;100.00;101917.72;5066181;28;20029;-65
2023/10/09 07:58:28;;;;;;;39.20;25.83;;;;;;;14.96;100.00;101918.75;5058223;28;20077;-64
2023/10/09 08:03:24;;;;;;;41.30;25.30;;;;;;;14.99;100.00;101955.84;5057681;28;20028;-64
2023/10/09 08:05:52;;;;;;;41.92;25.10;;;;;;;15.01;100.00;101943.97;5058743;28;20032;-65
2023/10/09 08:13:49;;;;;;;39.45;25.70;;;;;;;15.11;100.00;101933.91;5061043;28;20039;-64
2023/10/09 08:16:21;;;;;;;40.28;25.15;;;;;;;15.14;100.00;101919.34;5062229;28;20031;-65
2023/10/09 08:18:50;;;;;;;42.15;26.45;;;;;;;15.17;100.00;101935.06;5059200;28;20080;-64
2023/10/09 08:23:50;;;;;;;42.95;26.02;;;;;;;15.23;100.00;101909.44;5067005;28;19959;-65
2023/10/09 08:26:29;;;;;;;41.58;25.25;;;;;;;15.28;100.00;101918.59;5066158;28;20036;-64
2023/10/09 08:29:15;;;;;;;40.30;24.73;;;;;;;15.32;100.00;101921.75;5063405;28;20112;-65
2023/10/09 08:31:46;;;;;;;41.90;26.95;;;;;;;15.37;100.00;101901.50;5063715;28;20047;-64
2023/10/09 08:34:24;;;;;;;39.72;26.05;;;;;;;15.43;100.00;101902.63;5063397;28;20071;-64
2023/10/09 08:36:52;;;;;;;40.10;25.70;;;;;;;15.49;100.00;101901.91;5061588;28;20031;-64
2023/10/09 08:39:25;;;;;;;39.50;25.67;;;;;;;15.56;100.00;101916.25;5064176;28;21646;-64
2023/10/09 08:41:51;;;;;;;41.25;26.38;;;;;;;15.54;100.00;101907.56;5064380;28;20603;-65
2023/10/09 08:44:22;;;;;;;43.60;25.98;;;;;;;15.68;100.00;101912.22;5064656;28;20456;-65
2023/10/09 08:46:50;;;;;;;40.60;25.83;;;;;;;15.73;100.00;101912.50;5066139;28;20044;-65
2023/10/09 08:49:16;;;;;;;43.33;26.05;;;;;;;15.78;100.00;101915.47;5059520;28;20029;-65
2023/10/09 08:51:42;;;;;;;37.38;25.23;;;;;;;15.88;100.00;101933.97;5063023;28;20024;-65
2023/10/09 08:54:11;;;;;;;39.88;25.42;;;;;;;15.99;100.00;101944.31;5066095;28;20154;-65
2023/10/09 08:56:39;;;;;;;44.95;27.00;;;;;;;16.08;100.00;101964.66;5067651;28;20032;-65
2023/10/09 08:59:05;;;;;;;42.60;25.40;;;;;;;16.16;100.00;101976.31;5060689;28;20538;-65
2023/10/09 09:01:32;;;;;;;38.03;25.63;;;;;;;16.23;100.00;101975.44;5060744;28;20154;-65
2023/10/09 09:03:59;;;;;;;37.72;24.55;;;;;;;16.31;100.00;101977.22;5067599;28;20133;-65
2023/10/09 09:06:25;;;;;;;38.83;25.50;;;;;;;16.36;100.00;101961.41;5060886;28;20027;-65
2023/10/09 09:08:59;;;;;;;43.40;25.30;;;;;;;16.48;100.00;101977.88;5065286;28;20032;-65
2023/10/09 09:11:25;;;;;;;39.45;24.85;;;;;;;16.60;100.00;101981.81;5058906;28;20028;-65
2023/10/09 09:13:53;;;;;;;38.58;24.00;;;;;;;16.67;100.00;101990.81;5061143;28;20028;-65
2023/10/09 09:16:22;;;;;;;37.55;23.20;;;;;;;16.76;100.00;101987.03;5065584;28;20579;-65
2023/10/09 09:19:02;;;;;;;34.47;24.35;;;;;;;16.83;100.00;101990.69;5062121;28;20043;-65
2023/10/09 09:21:29;;;;;;;37.78;23.00;;;;;;;16.91;100.00;101979.84;5060958;28;20486;-65
2023/10/09 09:23:57;;;;;;;38.67;23.90;;;;;;;16.98;100.00;101979.94;5063420;28;20028;-64
2023/10/09 09:26:58;;;;;;;38.60;23.45;;;;;;;17.02;100.00;101986.59;5058549;28;20040;-66
2023/10/09 09:29:24;;;;;;;36.00;23.55;;;;;;;17.04;100.00;101996.13;5061647;28;20028;-66
2023/10/09 09:31:55;;;;;;;38.33;24.10;;;;;;;17.09;100.00;101998.28;5064260;28;20028;-66
2023/10/09 09:34:25;;;;;;;35.67;23.35;;;;;;;17.09;100.00;102002.81;5061853;28;20012;-66
2023/10/09 09:36:57;;;;;;;36.42;23.48;;;;;;;17.18;100.00;102015.13;5062734;28;20398;-65
2023/10/09 09:39:29;;;;;;;34.25;23.35;;;;;;;17.26;100.00;102017.69;5055702;28;20021;-66
2023/10/09 09:42:07;;;;;;;37.10;23.55;;;;;;;17.33;100.00;102002.50;5066277;28;20062;-66
2023/10/09 09:44:43;;;;;;;36.97;23.00;;;;;;;17.39;100.00;102004.47;5057968;28;20515;-66
2023/10/09 09:47:12;;;;;;;31.15;20.75;;;;;;;17.47;100.00;102006.22;5065229;28;20033;-66
2023/10/09 09:49:41;;;;;;;35.47;20.63;;;;;;;17.51;100.00;102004.81;5061190;28;20029;-66
2023/10/09 09:52:10;;;;;;;31.77;20.98;;;;;;;17.57;100.00;102002.19;5065753;28;20113;-66
2023/10/09 09:54:37;;;;;;;37.15;21.17;;;;;;;17.64;100.00;102005.00;5061219;28;20054;-66
2023/10/09 09:57:08;;;;;;;34.20;19.63;;;;;;;17.74;100.00;102010.09;5061649;28;20021;-66
2023/10/09 09:59:40;;;;;;;35.33;19.45;;;;;;;17.77;99.44;102012.38;5062662;28;20029;-66
2023/10/09 10:02:10;;;;;;;34.05;19.13;;;;;;;17.90;99.20;102015.22;5063660;28;20028;-66
2023/10/09 10:04:39;;;;;;;33.03;18.77;;;;;;;17.96;99.02;102025.22;5064225;28;20032;-66
2023/10/09 10:07:09;;;;;;;32.60;19.50;;;;;;;17.99;98.21;102002.50;5060982;28;20086;-66
2023/10/09 10:09:45;;;;;;;32.05;18.13;;;;;;;18.06;98.00;102009.63;5062569;28;20024;-66
2023/10/09 10:12:11;;;;;;;30.40;17.13;;;;;;;18.14;97.53;102011.34;5061282;28;20028;-66
2023/10/09 10:15:08;;;;;;;29.75;16.65;;;;;;;18.18;97.75;102008.06;5059851;28;20497;-67
2023/10/09 10:17:59;;;;;;;29.02;16.02;;;;;;;18.29;97.47;102005.91;5067980;28;20036;-66
2023/10/09 10:20:25;;;;;;;31.45;15.93;;;;;;;18.34;96.86;102011.53;5065163;28;20655;-67
2023/10/09 10:23:12;;;;;;;28.25;15.13;;;;;;;18.37;96.31;102011.16;5059869;28;20040;-66
2023/10/09 10:25:41;;;;;;;25.23;14.95;;;;;;;18.46;96.17;102016.19;5054807;28;20045;-66
2023/10/09 10:28:38;;;;;;;23.20;13.13;;;;;;;18.50;94.72;102017.50;5063272;28;20025;-66
2023/10/09 10:31:07;;;;;;;23.75;14.38;;;;;;;18.53;94.24;102017.09;5063550;28;20025;-66
2023/10/09 10:33:58;;;;;;;28.15;15.00;;;;;;;18.65;94.11;102021.97;5060063;28;20458;-66
2023/10/09 10:36:26;;;;;;;23.38;14.27;;;;;;;18.66;94.17;102016.38;5058868;28;20032;-66
2023/10/09 10:39:19;;;;;;;21.98;13.57;;;;;;;18.76;93.36;102005.28;5066736;28;20051;-66
2023/10/09 10:42:00;;;;;;;24.65;13.00;;;;;;;18.80;92.59;102002.03;5060596;28;20037;-66
2023/10/09 10:44:38;;;;;;;23.02;13.20;;;;;;;18.79;92.48;102010.25;5060328;28;20031;-67
2023/10/09 10:47:05;;;;;;;26.92;13.98;;;;;;;18.83;92.67;102012.38;5057176;28;20635;-66
2023/10/09 10:49:36;;;;;;;26.35;13.27;;;;;;;18.83;92.86;102003.47;5060692;28;21752;-66
2023/10/09 10:52:17;;;;;;;26.67;15.15;;;;;;;18.84;92.74;102008.66;5063242;28;20020;-66
2023/10/09 10:57:53;;;;;;;24.27;13.65;;;;;;;18.88;92.25;102014.50;5061115;28;20699;-66
2023/10/09 11:03:19;;;;;;;23.35;13.35;;;;;;;18.96;92.02;102013.50;5065507;28;20120;-67
2023/10/09 11:05:50;;;;;;;24.75;14.23;;;;;;;19.04;92.46;102018.72;5061424;28;20032;-67
2023/10/09 11:08:17;;;;;;;28.17;13.60;;;;;;;19.07;92.13;102024.53;5056511;28;20062;-66
2023/10/09 11:10:49;;;;;;;24.73;14.00;;;;;;;19.18;91.97;102026.69;5062870;28;20024;-66
2023/10/09 11:13:30;;;;;;;23.60;12.63;;;;;;;19.34;91.53;102019.31;5062575;28;21220;-66
2023/10/09 11:16:14;;;;;;;23.27;13.27;;;;;;;19.47;91.47;102014.00;5061262;28;20493;-66
2023/10/09 11:18:45;;;;;;;21.90;11.95;;;;;;;19.52;89.63;102016.06;5063062;28;20040;-66
2023/10/09 11:23:53;;;;;;;23.02;11.30;;;;;;;19.62;88.83;102011.16;5059898;28;20073;-66
2023/10/09 11:32:09;;;;;;;21.27;10.68;;;;;;;19.81;87.37;102018.50;5061610;28;20035;-66
2023/10/09 11:34:36;;;;;;;20.45;11.70;;;;;;;19.83;86.45;102015.59;5059562;28;20489;-67
2023/10/09 11:37:08;;;;;;;19.40;10.93;;;;;;;19.88;86.13;102030.13;5065639;28;20115;-65
2023/10/09 11:39:34;;;;;;;19.52;11.05;;;;;;;19.88;86.43;102016.66;5063431;28;20525;-66
2023/10/09 11:42:09;;;;;;;20.00;10.00;;;;;;;19.90;85.80;102003.78;5064810;28;20048;-66
2023/10/09 11:44:40;;;;;;;20.88;9.95;;;;;;;19.88;85.13;102013.13;5064885;28;20409;-66
2023/10/09 11:52:45;;;;;;;18.15;9.23;;;;;;;19.90;84.94;102019.97;5061203;28;20493;-66
2023/10/09 11:55:14;;;;;;;18.05;9.13;;;;;;;19.89;85.59;102014.78;5063192;28;20103;-66
2023/10/09 11:57:40;;;;;;;;;;;;;;;19.91;86.05;102012.72;5068766;28;20032;-67
2023/10/09 12:00:24;;;;;;;16.42;8.95;;;;;;;19.85;85.82;102011.66;5061875;28;19912;-67
2023/10/09 12:02:50;;;;;;;20.85;9.57;;;;;;;19.86;85.66;102013.31;5066272;28;20078;-66
2023/10/09 12:05:16;;;;;;;15.10;8.63;;;;;;;19.86;85.18;102002.53;5065081;28;20113;-66
2023/10/09 12:07:44;;;;;;;17.83;9.27;;;;;;;19.86;85.05;102007.09;5064319;28;20029;-66
2023/10/09 12:10:10;;;;;;;19.05;8.98;;;;;;;19.82;85.16;101998.59;5065527;28;20032;-66
2023/10/09 12:12:35;;;;;;;16.40;9.18;;;;;;;19.76;85.64;102002.09;5063586;28;20158;-67
2023/10/09 12:15:05;;;;;;;18.25;9.27;;;;;;;19.87;86.26;102009.59;5062366;28;20111;-67
2023/10/09 12:17:30;;;;;;;18.20;8.98;;;;;;;19.86;86.55;102005.25;5065280;28;20028;-66
2023/10/09 12:19:56;;;;;;;16.73;8.70;;;;;;;19.88;86.09;101994.25;5064540;28;20024;-67
2023/10/09 12:22:21;;;;;;;19.02;9.18;;;;;;;19.85;86.07;101992.78;5065723;28;20456;-67
2023/10/09 12:24:47;;;;;;;17.23;8.82;;;;;;;19.85;85.77;101998.19;5066488;28;20032;-66
2023/10/09 12:27:12;;;;;;;20.80;9.65;;;;;;;19.84;85.50;101993.81;5058155;28;20017;-66
2023/10/09 12:29:38;;;;;;;19.40;8.77;;;;;;;19.80;85.96;101984.50;5060880;28;20731;-66
2023/10/09 12:32:10;;;;;;;20.38;9.25;;;;;;;19.80;86.38;101974.53;5065817;28;20044;-67
2023/10/09 12:34:38;;;;;;;15.02;8.85;;;;;;;19.82;86.33;101973.50;5060905;28;20407;-66
2023/10/09 12:37:04;;;;;;;19.15;8.45;;;;;;;19.79;85.95;101980.13;5062383;28;20024;-66
2023/10/09 12:39:40;;;;;;;21.50;8.20;;;;;;;19.78;86.17;101983.88;5067108;28;20450;-67
2023/10/09 12:42:08;;;;;;;19.67;8.65;;;;;;;19.79;85.67;101970.19;5063651;28;20052;-67
2023/10/09 12:44:38;;;;;;;19.83;8.48;;;;;;;19.81;85.66;101961.88;5063851;28;20036;-66
2023/10/09 12:47:06;;;;;;;16.15;8.73;;;;;;;19.85;86.13;101956.91;5067073;28;20119;-66
2023/10/09 12:49:32;;;;;;;16.17;8.73;;;;;;;19.92;86.28;101952.34;5065685;28;20032;-66
2023/10/09 12:51:58;;;;;;;17.00;8.48;;;;;;;20.01;85.59;101961.94;5065189;28;20585;-66
2023/10/09 12:54:27;;;;;;;15.18;7.90;;;;;;;20.20;85.58;101953.00;5066667;28;20028;-67
2023/10/09 12:56:56;;;;;;;17.23;7.78;;;;;;;20.26;84.18;101945.97;5064917;28;20032;-66
2023/10/09 12:59:23;;;;;;;15.60;7.80;;;;;;;20.30;83.06;101948.06;5063826;28;20047;-66
2023/10/09 13:01:57;;;;;;;13.65;7.55;;;;;;;20.25;81.98;101952.41;5066592;28;20020;-66
2023/10/09 13:04:23;;;;;;;17.33;8.15;;;;;;;20.21;82.55;101946.56;5053881;28;20051;-67
2023/10/09 13:06:53;;;;;;;17.95;7.72;;;;;;;20.24;82.70;101959.69;5052971;28;20550;-66
2023/10/09 13:09:24;;;;;;;15.25;7.88;;;;;;;20.22;81.54;101955.50;5065967;28;20036;-67
2023/10/09 13:11:50;;;;;;;14.63;7.70;;;;;;;20.23;81.24;101959.84;5062407;28;20104;-66
2023/10/09 13:14:21;;;;;;;14.93;7.40;;;;;;;20.24;80.88;101956.97;5064741;28;20553;-66
2023/10/09 13:16:50;;;;;;;13.90;7.43;;;;;;;20.19;80.54;101959.44;5066485;28;20059;-67
2023/10/09 13:19:17;;;;;;;15.77;7.60;;;;;;;20.17;80.05;101956.13;5065355;28;20023;-66
2023/10/09 13:21:43;;;;;;;18.58;7.45;;;;;;;20.18;80.05;101962.34;5064678;28;20509;-66
2023/10/09 13:24:13;;;;;;;14.00;7.20;;;;;;;20.16;79.93;101961.72;5063253;28;20393;-67
2023/10/09 13:26:44;;;;;;;13.30;7.22;;;;;;;20.15;80.00;101970.84;5062264;28;20479;-66
2023/10/09 13:29:11;;;;;;;13.02;6.72;;;;;;;20.14;80.67;101982.69;5066088;28;20029;-67
2023/10/09 13:31:39;;;;;;;13.30;6.70;;;;;;;20.16;79.95;101970.66;5058205;28;20099;-66
2023/10/09 13:34:14;;;;;;;16.75;7.40;;;;;;;20.21;79.95;101972.72;5054019;28;20043;-66
2023/10/09 13:36:45;;;;;;;14.55;7.10;;;;;;;20.24;80.31;101983.09;5064531;28;21323;-66
2023/10/09 13:39:21;;;;;;;17.20;7.22;;;;;;;20.28;79.50;101978.97;5066341;28;20029;-67
2023/10/09 13:41:48;;;;;;;12.68;6.95;;;;;;;20.37;79.09;101975.03;5061842;28;20035;-66
2023/10/09 13:44:13;;;;;;;14.63;6.72;;;;;;;20.39;79.12;101971.06;5066432;28;20024;-66
2023/10/09 13:46:41;;;;;;;14.07;6.50;;;;;;;20.49;79.38;101973.38;5062740;28;20043;-67